createdAt,value
2016-10-20T00:00:07.173Z,7.23
2016-10-20T00:05:03.813Z,7.13
2016-10-20T00:10:02.804Z,7.21
2016-10-20T00:14:58.537Z,7.23
2016-10-20T00:19:55.077Z,7.13
2016-10-20T00:24:51.525Z,7.29
2016-10-20T00:29:48.158Z,7.20
2016-10-20T00:34:44.568Z,7.25
2016-10-20T00:39:40.812Z,7.21
2016-10-20T00:44:37.188Z,7.18
2016-10-20T00:49:34.054Z,7.28
2016-10-20T00:54:30.637Z,7.21
2016-10-20T00:59:27.212Z,7.31
2016-10-20T01:04:24.240Z,7.28
2016-10-20T01:09:20.702Z,7.32
2016-10-20T01:14:17.066Z,7.33
2016-10-20T01:19:13.432Z,7.33
2016-10-20T01:24:09.941Z,7.35
2016-10-20T01:29:07.083Z,7.28
2016-10-20T01:34:03.624Z,7.21
2016-10-20T01:39:00.261Z,7.20
2016-10-20T01:43:57.063Z,7.17
2016-10-20T01:48:53.330Z,7.25
2016-10-20T01:53:50.081Z,7.07
2016-10-20T01:58:47.168Z,7.11
2016-10-20T02:03:43.726Z,7.03
2016-10-20T02:08:40.116Z,6.82
2016-10-20T02:13:36.549Z,6.63
2016-10-20T02:18:35.447Z,6.70
2016-10-20T02:23:31.128Z,6.66
2016-10-20T02:28:28.838Z,6.85
2016-10-20T02:33:24.892Z,7.14
2016-10-20T02:38:21.324Z,7.18
2016-10-20T02:43:17.965Z,7.20
2016-10-20T02:48:14.941Z,7.29
2016-10-20T02:53:11.421Z,7.40
2016-10-20T02:58:07.905Z,7.32
2016-10-20T03:03:04.356Z,7.35
2016-10-20T03:08:00.542Z,7.32
2016-10-20T03:12:56.886Z,7.31
2016-10-20T03:17:53.586Z,7.40
2016-10-20T03:22:50.289Z,7.28
2016-10-20T03:27:46.907Z,7.35
2016-10-20T03:32:43.253Z,7.25
2016-10-20T03:37:40.559Z,7.18
2016-10-20T03:42:37.009Z,7.15
2016-10-20T03:47:33.029Z,7.02
2016-10-20T03:52:29.686Z,7.06
2016-10-20T03:57:26.360Z,7.15
2016-10-20T04:02:25.035Z,7.23
2016-10-20T04:07:22.090Z,7.17
2016-10-20T04:12:18.180Z,7.18
2016-10-20T04:17:14.556Z,7.17
2016-10-20T04:22:11.240Z,7.17
2016-10-20T04:27:07.719Z,7.33
2016-10-20T04:32:04.126Z,7.28
2016-10-20T04:37:01.390Z,7.31
2016-10-20T04:46:57.577Z,7.18
2016-10-20T04:51:53.978Z,7.23
2016-10-20T04:56:50.463Z,7.15
2016-10-20T05:01:47.022Z,7.07
2016-10-20T05:06:43.693Z,7.14
2016-10-20T05:11:42.617Z,7.18
2016-10-20T05:16:38.486Z,7.13
2016-10-20T05:21:34.826Z,7.14
2016-10-20T05:26:31.140Z,7.13
2016-10-20T05:31:27.587Z,7.03
2016-10-20T05:36:24.387Z,6.87
2016-10-20T05:41:20.753Z,6.79
2016-10-20T05:46:17.818Z,6.87
2016-10-20T05:51:13.910Z,6.82
2016-10-20T05:56:12.928Z,6.82
2016-10-20T06:01:08.897Z,6.96
2016-10-20T06:06:05.428Z,6.89
2016-10-20T06:11:01.936Z,6.85
2016-10-20T06:15:58.483Z,6.87
2016-10-20T06:20:54.915Z,6.93
2016-10-20T06:25:51.327Z,6.96
2016-10-20T06:30:47.891Z,7.15
2016-10-20T06:35:45.571Z,7.15
2016-10-20T06:40:42.040Z,7.18
2016-10-20T06:45:38.557Z,7.29
2016-10-20T06:50:35.193Z,7.33
2016-10-20T06:55:31.611Z,7.50
2016-10-20T07:00:28.133Z,7.53
2016-10-20T07:05:24.638Z,7.67
2016-10-20T07:10:21.275Z,7.77
2016-10-20T07:15:17.959Z,7.85
2016-10-20T07:20:14.516Z,8.03
2016-10-20T07:25:10.962Z,8.10
2016-10-20T07:30:07.651Z,8.19
2016-10-20T07:35:06.991Z,8.26
2016-10-20T07:40:02.593Z,8.37
2016-10-20T07:44:59.730Z,8.66
2016-10-20T07:49:58.235Z,8.64
2016-10-20T07:54:53.951Z,8.70
2016-10-20T07:59:50.839Z,8.76
2016-10-20T08:04:47.582Z,9.08
2016-10-20T08:09:44.372Z,9.13
2016-10-20T08:14:40.832Z,9.41
2016-10-20T08:19:37.829Z,9.55
2016-10-20T08:24:35.955Z,9.79
2016-10-20T08:29:32.279Z,9.82
2016-10-20T08:34:28.543Z,9.74
2016-10-20T08:39:25.119Z,9.69
2016-10-20T08:44:21.372Z,9.76
2016-10-20T08:49:18.292Z,10.07
2016-10-20T08:54:15.505Z,10.19
2016-10-20T08:59:15.509Z,10.46
2016-10-20T09:04:12.073Z,10.93
2016-10-20T09:09:09.315Z,11.29
2016-10-20T09:14:05.694Z,11.23
2016-10-20T09:19:02.439Z,11.52
2016-10-20T09:23:59.273Z,11.51
2016-10-20T09:28:56.683Z,11.40
2016-10-20T09:33:52.734Z,11.07
2016-10-20T09:38:49.459Z,11.11
2016-10-20T09:43:45.885Z,11.27
2016-10-20T09:48:42.765Z,11.00
2016-10-20T09:53:39.318Z,10.96
2016-10-20T09:58:35.734Z,10.42
2016-10-20T10:03:32.553Z,11.11
2016-10-20T10:08:29.303Z,11.54
2016-10-20T10:13:25.929Z,12.09
2016-10-20T10:18:22.855Z,12.17
2016-10-20T10:23:19.501Z,11.91
2016-10-20T10:28:15.733Z,11.52
2016-10-20T10:33:12.134Z,11.51
2016-10-20T10:38:08.931Z,11.75
2016-10-20T10:43:05.632Z,11.97
2016-10-20T10:48:02.105Z,11.86
2016-10-20T10:52:58.566Z,11.87
2016-10-20T10:57:55.188Z,11.69
2016-10-20T11:02:51.600Z,11.69
2016-10-20T11:07:47.994Z,11.81
2016-10-20T11:12:52.415Z,11.75
2016-10-20T11:17:48.502Z,11.90
2016-10-20T11:22:45.411Z,11.50
2016-10-20T11:27:41.457Z,11.00
2016-10-20T11:32:37.610Z,10.75
2016-10-20T11:37:33.660Z,10.49
2016-10-20T11:42:30.228Z,10.44
2016-10-20T11:47:26.515Z,10.23
2016-10-20T11:52:23.052Z,10.12
2016-10-20T11:57:19.629Z,9.77
2016-10-20T12:02:20.224Z,9.79
2016-10-20T12:07:15.933Z,9.94
2016-10-20T12:12:12.334Z,9.79
2016-10-20T12:17:09.096Z,10.05
2016-10-20T12:22:05.909Z,10.13
2016-10-20T12:27:02.375Z,9.97
2016-10-20T12:31:58.757Z,10.02
2016-10-20T12:36:55.615Z,10.01
2016-10-20T12:41:52.363Z,10.05
2016-10-20T12:46:48.800Z,10.19
2016-10-20T12:51:45.275Z,9.95
2016-10-20T12:56:41.778Z,9.83
2016-10-20T13:01:38.277Z,9.61
2016-10-20T13:06:34.489Z,9.55
2016-10-20T13:11:30.931Z,9.56
2016-10-20T13:16:27.452Z,9.61
2016-10-20T13:26:24.921Z,9.83
2016-10-20T13:31:21.059Z,9.86
2016-10-20T13:36:18.091Z,9.73
2016-10-20T13:41:14.533Z,9.83
2016-10-20T13:46:11.025Z,9.80
2016-10-20T13:51:07.919Z,9.84
2016-10-20T13:56:04.408Z,9.97
2016-10-20T14:01:01.071Z,9.83
2016-10-20T14:05:57.658Z,9.94
2016-10-20T14:10:56.705Z,10.09
2016-10-20T14:15:52.679Z,10.19
2016-10-20T14:20:49.215Z,10.04
2016-10-20T14:25:46.203Z,9.69
2016-10-20T14:30:43.228Z,9.74
2016-10-20T14:35:39.819Z,9.82
2016-10-20T14:40:36.031Z,9.80
2016-10-20T14:45:32.558Z,9.83
2016-10-20T14:50:28.927Z,9.87
2016-10-20T14:55:25.243Z,9.73
2016-10-20T15:00:21.981Z,9.69
2016-10-20T15:05:18.454Z,9.72
2016-10-20T15:10:15.586Z,9.72
2016-10-20T15:15:13.450Z,9.58
2016-10-20T15:20:09.488Z,9.47
2016-10-20T15:25:05.871Z,9.39
2016-10-20T15:30:02.220Z,9.34
2016-10-20T15:34:58.702Z,9.34
2016-10-20T15:39:55.117Z,9.26
2016-10-20T15:44:56.499Z,9.29
2016-10-20T15:49:54.937Z,9.26
2016-10-20T15:54:50.903Z,9.22
2016-10-20T15:59:47.377Z,9.23
2016-10-20T16:04:43.700Z,9.13
2016-10-20T16:09:41.471Z,9.13
2016-10-20T16:14:37.879Z,9.16
2016-10-20T16:19:35.496Z,9.03
2016-10-20T16:24:31.703Z,8.94
2016-10-20T16:29:28.200Z,8.91
2016-10-20T16:34:25.381Z,8.71
2016-10-20T16:39:21.761Z,8.69
2016-10-20T16:44:20.094Z,8.66
2016-10-20T16:49:16.420Z,8.58
2016-10-20T16:54:13.165Z,8.49
2016-10-20T16:59:09.697Z,8.61
2016-10-20T17:04:06.088Z,8.61
2016-10-20T17:09:02.501Z,8.63
2016-10-20T17:14:00.284Z,8.66
2016-10-20T17:18:56.644Z,8.61
2016-10-20T17:23:53.245Z,8.67
2016-10-20T17:28:49.774Z,8.64
2016-10-20T17:33:47.486Z,8.63
2016-10-20T17:38:43.662Z,8.60
2016-10-20T17:43:40.135Z,8.70
2016-10-20T17:48:36.706Z,8.67
2016-10-20T17:53:33.308Z,8.66
2016-10-20T17:58:30.514Z,8.69
2016-10-20T18:03:27.041Z,8.66
2016-10-20T18:08:24.864Z,8.64
2016-10-20T18:13:20.732Z,8.60
2016-10-20T18:18:18.293Z,8.61
2016-10-20T18:23:14.967Z,8.55
2016-10-20T18:28:12.163Z,8.60
2016-10-20T18:33:08.714Z,8.61
2016-10-20T18:38:05.485Z,8.60
2016-10-20T18:43:03.283Z,8.60
2016-10-20T18:47:59.564Z,8.69
2016-10-20T18:52:56.259Z,8.64
2016-10-20T18:57:52.645Z,8.63
2016-10-20T19:02:50.152Z,8.60
2016-10-20T19:07:46.625Z,8.45
2016-10-20T19:12:43.358Z,8.51
2016-10-20T19:17:40.106Z,8.45
2016-10-20T19:22:37.226Z,8.28
2016-10-20T19:27:33.947Z,8.41
2016-10-20T19:32:30.046Z,8.41
2016-10-20T19:37:26.608Z,8.33
2016-10-20T19:42:23.115Z,8.37
2016-10-20T19:47:19.728Z,8.30
2016-10-20T19:52:16.347Z,8.26
2016-10-20T19:57:12.811Z,8.30
2016-10-20T20:02:09.651Z,8.36
2016-10-20T20:07:06.021Z,8.30
2016-10-20T20:12:02.429Z,8.33
2016-10-20T20:16:59.060Z,8.27
2016-10-20T20:21:56.628Z,8.28
2016-10-20T20:26:52.812Z,8.33
2016-10-20T20:31:49.411Z,8.33
2016-10-20T20:36:47.154Z,8.37
2016-10-20T20:41:43.302Z,8.33
2016-10-20T20:46:39.866Z,8.38
2016-10-20T20:51:37.433Z,8.34
2016-10-20T20:56:36.226Z,8.23
2016-10-20T21:01:32.781Z,8.28
2016-10-20T21:06:29.361Z,8.28
2016-10-20T21:11:25.777Z,8.27
2016-10-20T21:16:22.506Z,8.20
2016-10-20T21:21:18.835Z,8.19
2016-10-20T21:26:15.744Z,8.15
2016-10-20T21:31:12.645Z,8.23
2016-10-20T21:41:10.143Z,8.20
2016-10-20T21:46:06.625Z,8.12
2016-10-20T21:51:04.565Z,8.13
2016-10-20T21:56:01.006Z,8.20
2016-10-20T22:00:57.956Z,8.09
2016-10-20T22:10:56.292Z,8.05
2016-10-20T22:15:53.206Z,7.98
2016-10-20T22:20:50.570Z,7.88
2016-10-20T22:25:46.714Z,7.97
2016-10-20T22:30:43.250Z,7.79
2016-10-20T22:35:40.610Z,7.79
2016-10-20T22:40:36.569Z,7.88
2016-10-20T22:45:33.018Z,7.82
2016-10-20T22:50:32.441Z,7.82
2016-10-20T22:55:29.472Z,7.80
2016-10-20T23:00:25.929Z,7.76
2016-10-20T23:05:22.462Z,7.83
2016-10-20T23:10:21.461Z,7.82
2016-10-20T23:15:18.110Z,7.85
2016-10-20T23:20:14.719Z,7.79
2016-10-20T23:25:12.292Z,7.83
2016-10-20T23:30:08.433Z,7.85
2016-10-20T23:35:05.085Z,7.80
2016-10-20T23:40:01.290Z,7.80
2016-10-20T23:44:57.792Z,7.85
2016-10-20T23:49:54.330Z,7.85
2016-10-20T23:54:51.850Z,7.91
2016-10-20T23:59:48.262Z,7.91
